sensor_id;sensor_type;location;lat;lon;timestamp;temperature;humidity
9837;DHT22;4957;51.412;6.724;2022-07-24T00:00:27;22.20;53.50
9837;DHT22;4957;51.412;6.724;2022-07-24T00:02:53;22.20;53.70
9837;DHT22;4957;51.412;6.724;2022-07-24T00:05:19;22.10;53.70
9837;DHT22;4957;51.412;6.724;2022-07-24T00:07:44;22.10;53.80
9837;DHT22;4957;51.412;6.724;2022-07-24T00:10:10;22.00;53.80
9837;DHT22;4957;51.412;6.724;2022-07-24T00:12:37;22.00;53.70
9837;DHT22;4957;51.412;6.724;2022-07-24T00:15:03;21.90;53.90
9837;DHT22;4957;51.412;6.724;2022-07-24T00:17:29;21.90;53.80
9837;DHT22;4957;51.412;6.724;2022-07-24T00:19:55;21.90;53.90
9837;DHT22;4957;51.412;6.724;2022-07-24T00:22:21;21.90;54.10
9837;DHT22;4957;51.412;6.724;2022-07-24T00:24:47;21.80;53.80
9837;DHT22;4957;51.412;6.724;2022-07-24T00:27:13;21.80;53.90
9837;DHT22;4957;51.412;6.724;2022-07-24T00:29:38;21.80;54.10
9837;DHT22;4957;51.412;6.724;2022-07-24T00:32:04;21.70;54.10
9837;DHT22;4957;51.412;6.724;2022-07-24T00:34:30;21.70;54.20
9837;DHT22;4957;51.412;6.724;2022-07-24T00:36:56;21.60;54.30
9837;DHT22;4957;51.412;6.724;2022-07-24T00:39:21;21.60;54.50
9837;DHT22;4957;51.412;6.724;2022-07-24T00:41:47;21.60;54.40
9837;DHT22;4957;51.412;6.724;2022-07-24T00:44:15;21.50;54.40
9837;DHT22;4957;51.412;6.724;2022-07-24T00:46:43;21.50;54.50
9837;DHT22;4957;51.412;6.724;2022-07-24T00:49:11;21.50;54.40
9837;DHT22;4957;51.412;6.724;2022-07-24T00:51:37;21.40;54.50
9837;DHT22;4957;51.412;6.724;2022-07-24T00:54:05;21.40;54.50
9837;DHT22;4957;51.412;6.724;2022-07-24T00:56:31;21.40;54.80
9837;DHT22;4957;51.412;6.724;2022-07-24T00:58:57;21.30;54.70
9837;DHT22;4957;51.412;6.724;2022-07-24T01:01:24;21.30;54.90
9837;DHT22;4957;51.412;6.724;2022-07-24T01:03:50;21.20;54.70
9837;DHT22;4957;51.412;6.724;2022-07-24T01:06:15;21.20;54.70
9837;DHT22;4957;51.412;6.724;2022-07-24T01:08:41;21.20;54.70
9837;DHT22;4957;51.412;6.724;2022-07-24T01:11:11;21.20;54.80
9837;DHT22;4957;51.412;6.724;2022-07-24T01:13:36;21.10;55.10
9837;DHT22;4957;51.412;6.724;2022-07-24T01:16:03;21.10;54.90
9837;DHT22;4957;51.412;6.724;2022-07-24T01:18:28;21.10;55.20
9837;DHT22;4957;51.412;6.724;2022-07-24T01:20:54;21.10;55.10
9837;DHT22;4957;51.412;6.724;2022-07-24T01:23:23;21.00;55.20
9837;DHT22;4957;51.412;6.724;2022-07-24T01:25:49;20.90;55.40
9837;DHT22;4957;51.412;6.724;2022-07-24T01:28:15;20.90;55.40
9837;DHT22;4957;51.412;6.724;2022-07-24T01:30:40;20.90;55.50
9837;DHT22;4957;51.412;6.724;2022-07-24T01:33:06;20.80;55.50
9837;DHT22;4957;51.412;6.724;2022-07-24T01:35:32;20.80;55.80
9837;DHT22;4957;51.412;6.724;2022-07-24T01:37:58;20.70;55.70
9837;DHT22;4957;51.412;6.724;2022-07-24T01:40:24;20.70;55.80
9837;DHT22;4957;51.412;6.724;2022-07-24T01:42:50;20.70;55.90
9837;DHT22;4957;51.412;6.724;2022-07-24T01:45:16;20.60;56.00
9837;DHT22;4957;51.412;6.724;2022-07-24T01:47:43;20.60;56.10
9837;DHT22;4957;51.412;6.724;2022-07-24T01:50:10;20.60;56.30
9837;DHT22;4957;51.412;6.724;2022-07-24T01:52:37;20.60;56.40
9837;DHT22;4957;51.412;6.724;2022-07-24T01:55:03;20.50;56.50
9837;DHT22;4957;51.412;6.724;2022-07-24T01:57:30;20.50;56.60
9837;DHT22;4957;51.412;6.724;2022-07-24T01:59:56;20.50;56.50
9837;DHT22;4957;51.412;6.724;2022-07-24T02:02:21;20.50;56.60
9837;DHT22;4957;51.412;6.724;2022-07-24T02:04:47;20.40;56.80
9837;DHT22;4957;51.412;6.724;2022-07-24T02:07:12;20.40;56.70
9837;DHT22;4957;51.412;6.724;2022-07-24T02:09:38;20.40;56.60
9837;DHT22;4957;51.412;6.724;2022-07-24T02:12:04;20.30;56.80
9837;DHT22;4957;51.412;6.724;2022-07-24T02:14:30;20.30;56.90
9837;DHT22;4957;51.412;6.724;2022-07-24T02:16:55;20.30;56.90
9837;DHT22;4957;51.412;6.724;2022-07-24T02:19:21;20.30;56.90
9837;DHT22;4957;51.412;6.724;2022-07-24T02:21:48;20.20;56.90
9837;DHT22;4957;51.412;6.724;2022-07-24T02:24:14;20.20;57.00
9837;DHT22;4957;51.412;6.724;2022-07-24T02:26:39;20.20;56.80
9837;DHT22;4957;51.412;6.724;2022-07-24T02:29:05;20.20;57.10
9837;DHT22;4957;51.412;6.724;2022-07-24T02:31:31;20.20;57.00
9837;DHT22;4957;51.412;6.724;2022-07-24T02:33:57;20.20;57.30
9837;DHT22;4957;51.412;6.724;2022-07-24T02:36:22;20.20;57.20
9837;DHT22;4957;51.412;6.724;2022-07-24T02:38:48;20.10;57.20
9837;DHT22;4957;51.412;6.724;2022-07-24T02:41:14;20.10;57.30
9837;DHT22;4957;51.412;6.724;2022-07-24T02:43:40;20.10;57.20
9837;DHT22;4957;51.412;6.724;2022-07-24T02:46:05;20.00;57.20
9837;DHT22;4957;51.412;6.724;2022-07-24T02:48:31;20.00;57.50
9837;DHT22;4957;51.412;6.724;2022-07-24T02:50:57;20.00;57.50
9837;DHT22;4957;51.412;6.724;2022-07-24T02:53:23;20.00;57.50
9837;DHT22;4957;51.412;6.724;2022-07-24T02:55:48;19.90;57.40
9837;DHT22;4957;51.412;6.724;2022-07-24T02:58:14;19.90;57.60
9837;DHT22;4957;51.412;6.724;2022-07-24T03:00:40;19.90;57.50
9837;DHT22;4957;51.412;6.724;2022-07-24T03:03:05;19.90;57.80
9837;DHT22;4957;51.412;6.724;2022-07-24T03:05:31;19.90;57.70
9837;DHT22;4957;51.412;6.724;2022-07-24T03:07:57;19.80;57.70
9837;DHT22;4957;51.412;6.724;2022-07-24T03:10:23;19.90;57.60
9837;DHT22;4957;51.412;6.724;2022-07-24T03:12:48;19.80;57.90
9837;DHT22;4957;51.412;6.724;2022-07-24T03:15:14;19.80;57.90
9837;DHT22;4957;51.412;6.724;2022-07-24T03:17:48;19.80;58.00
9837;DHT22;4957;51.412;6.724;2022-07-24T03:20:14;19.70;58.60
9837;DHT22;4957;51.412;6.724;2022-07-24T03:22:40;19.70;57.90
9837;DHT22;4957;51.412;6.724;2022-07-24T03:25:06;19.70;58.20
9837;DHT22;4957;51.412;6.724;2022-07-24T03:27:31;19.60;58.20
9837;DHT22;4957;51.412;6.724;2022-07-24T03:29:57;19.60;58.20
9837;DHT22;4957;51.412;6.724;2022-07-24T03:32:23;19.60;58.20
9837;DHT22;4957;51.412;6.724;2022-07-24T03:34:48;19.60;58.20
9837;DHT22;4957;51.412;6.724;2022-07-24T03:37:14;19.60;58.20
9837;DHT22;4957;51.412;6.724;2022-07-24T03:39:40;19.60;58.70
9837;DHT22;4957;51.412;6.724;2022-07-24T03:42:05;19.50;58.10
9837;DHT22;4957;51.412;6.724;2022-07-24T03:44:31;19.50;58.20
9837;DHT22;4957;51.412;6.724;2022-07-24T03:46:57;19.50;58.40
9837;DHT22;4957;51.412;6.724;2022-07-24T03:49:22;19.50;58.70
9837;DHT22;4957;51.412;6.724;2022-07-24T03:51:48;19.50;58.90
9837;DHT22;4957;51.412;6.724;2022-07-24T03:54:14;19.50;58.70
9837;DHT22;4957;51.412;6.724;2022-07-24T03:56:40;19.40;59.30
9837;DHT22;4957;51.412;6.724;2022-07-24T03:59:06;19.40;59.00
9837;DHT22;4957;51.412;6.724;2022-07-24T04:01:31;19.40;58.80
9837;DHT22;4957;51.412;6.724;2022-07-24T04:03:57;19.30;59.00
9837;DHT22;4957;51.412;6.724;2022-07-24T04:06:30;19.30;59.10
9837;DHT22;4957;51.412;6.724;2022-07-24T04:08:56;19.30;59.10
9837;DHT22;4957;51.412;6.724;2022-07-24T04:11:21;19.30;59.30
9837;DHT22;4957;51.412;6.724;2022-07-24T04:13:47;19.30;59.30
9837;DHT22;4957;51.412;6.724;2022-07-24T04:16:13;19.30;59.40
9837;DHT22;4957;51.412;6.724;2022-07-24T04:18:38;19.30;59.40
9837;DHT22;4957;51.412;6.724;2022-07-24T04:21:04;19.30;59.40
9837;DHT22;4957;51.412;6.724;2022-07-24T04:23:30;19.30;59.30
9837;DHT22;4957;51.412;6.724;2022-07-24T04:25:55;19.30;59.60
9837;DHT22;4957;51.412;6.724;2022-07-24T04:28:21;19.30;59.70
9837;DHT22;4957;51.412;6.724;2022-07-24T04:30:47;19.30;59.90
9837;DHT22;4957;51.412;6.724;2022-07-24T04:33:12;19.30;60.20
9837;DHT22;4957;51.412;6.724;2022-07-24T04:35:38;19.30;59.90
9837;DHT22;4957;51.412;6.724;2022-07-24T04:38:03;19.30;59.80
9837;DHT22;4957;51.412;6.724;2022-07-24T04:40:29;19.30;60.10
9837;DHT22;4957;51.412;6.724;2022-07-24T04:42:55;19.30;60.60
9837;DHT22;4957;51.412;6.724;2022-07-24T04:45:21;19.30;60.00
9837;DHT22;4957;51.412;6.724;2022-07-24T04:47:46;19.30;60.40
9837;DHT22;4957;51.412;6.724;2022-07-24T04:50:12;19.30;60.50
9837;DHT22;4957;51.412;6.724;2022-07-24T04:52:38;19.30;60.40
9837;DHT22;4957;51.412;6.724;2022-07-24T04:55:04;19.30;60.70
9837;DHT22;4957;51.412;6.724;2022-07-24T04:57:29;19.30;61.10
9837;DHT22;4957;51.412;6.724;2022-07-24T04:59:55;19.30;60.80
9837;DHT22;4957;51.412;6.724;2022-07-24T05:02:21;19.40;61.00
9837;DHT22;4957;51.412;6.724;2022-07-24T05:04:46;19.40;61.40
9837;DHT22;4957;51.412;6.724;2022-07-24T05:07:12;19.40;61.30
9837;DHT22;4957;51.412;6.724;2022-07-24T05:09:38;19.40;61.10
9837;DHT22;4957;51.412;6.724;2022-07-24T05:12:03;19.50;61.80
9837;DHT22;4957;51.412;6.724;2022-07-24T05:14:29;19.50;62.30
9837;DHT22;4957;51.412;6.724;2022-07-24T05:16:55;19.50;62.90
9837;DHT22;4957;51.412;6.724;2022-07-24T05:19:20;19.50;63.40
9837;DHT22;4957;51.412;6.724;2022-07-24T05:21:46;19.60;63.20
9837;DHT22;4957;51.412;6.724;2022-07-24T05:24:12;19.60;63.10
9837;DHT22;4957;51.412;6.724;2022-07-24T05:26:37;19.70;63.10
9837;DHT22;4957;51.412;6.724;2022-07-24T05:29:04;19.70;63.00
9837;DHT22;4957;51.412;6.724;2022-07-24T05:31:32;19.80;63.30
9837;DHT22;4957;51.412;6.724;2022-07-24T05:33:58;19.80;63.20
9837;DHT22;4957;51.412;6.724;2022-07-24T05:36:24;19.90;63.20
9837;DHT22;4957;51.412;6.724;2022-07-24T05:38:50;19.90;64.30
9837;DHT22;4957;51.412;6.724;2022-07-24T05:41:16;20.00;63.40
9837;DHT22;4957;51.412;6.724;2022-07-24T05:43:42;20.10;63.50
9837;DHT22;4957;51.412;6.724;2022-07-24T05:46:07;20.20;63.70
9837;DHT22;4957;51.412;6.724;2022-07-24T05:48:33;20.20;63.70
9837;DHT22;4957;51.412;6.724;2022-07-24T05:50:59;20.30;64.00
9837;DHT22;4957;51.412;6.724;2022-07-24T05:53:25;20.40;64.40
9837;DHT22;4957;51.412;6.724;2022-07-24T05:55:51;20.50;64.50
9837;DHT22;4957;51.412;6.724;2022-07-24T05:58:17;20.50;64.90
9837;DHT22;4957;51.412;6.724;2022-07-24T06:00:43;20.60;65.30
9837;DHT22;4957;51.412;6.724;2022-07-24T06:03:09;20.80;65.50
9837;DHT22;4957;51.412;6.724;2022-07-24T06:05:35;20.80;65.20
9837;DHT22;4957;51.412;6.724;2022-07-24T06:08:01;21.00;65.40
9837;DHT22;4957;51.412;6.724;2022-07-24T06:10:26;21.10;65.40
9837;DHT22;4957;51.412;6.724;2022-07-24T06:12:53;21.20;65.20
9837;DHT22;4957;51.412;6.724;2022-07-24T06:15:18;21.30;64.90
9837;DHT22;4957;51.412;6.724;2022-07-24T06:17:44;21.50;64.80
9837;DHT22;4957;51.412;6.724;2022-07-24T06:20:11;21.60;64.50
9837;DHT22;4957;51.412;6.724;2022-07-24T06:22:39;21.80;64.20
9837;DHT22;4957;51.412;6.724;2022-07-24T06:25:05;21.90;63.80
9837;DHT22;4957;51.412;6.724;2022-07-24T06:27:31;22.10;63.50
9837;DHT22;4957;51.412;6.724;2022-07-24T06:29:57;22.20;63.00
9837;DHT22;4957;51.412;6.724;2022-07-24T06:32:23;22.40;62.70
9837;DHT22;4957;51.412;6.724;2022-07-24T06:34:49;22.50;62.30
9837;DHT22;4957;51.412;6.724;2022-07-24T06:37:15;22.70;62.00
9837;DHT22;4957;51.412;6.724;2022-07-24T06:39:41;22.90;61.60
9837;DHT22;4957;51.412;6.724;2022-07-24T06:42:06;23.00;61.30
9837;DHT22;4957;51.412;6.724;2022-07-24T06:44:32;23.20;60.80
9837;DHT22;4957;51.412;6.724;2022-07-24T06:46:59;23.40;60.50
9837;DHT22;4957;51.412;6.724;2022-07-24T06:49:25;23.50;59.80
9837;DHT22;4957;51.412;6.724;2022-07-24T06:51:51;23.80;59.70
9837;DHT22;4957;51.412;6.724;2022-07-24T06:54:17;23.90;59.20
9837;DHT22;4957;51.412;6.724;2022-07-24T06:56:42;24.10;58.90
9837;DHT22;4957;51.412;6.724;2022-07-24T06:59:08;24.30;58.40
9837;DHT22;4957;51.412;6.724;2022-07-24T07:01:34;24.40;58.00
9837;DHT22;4957;51.412;6.724;2022-07-24T07:03:59;24.60;57.40
9837;DHT22;4957;51.412;6.724;2022-07-24T07:06:25;24.80;57.30
9837;DHT22;4957;51.412;6.724;2022-07-24T07:08:51;25.00;56.90
9837;DHT22;4957;51.412;6.724;2022-07-24T07:11:16;25.20;56.30
9837;DHT22;4957;51.412;6.724;2022-07-24T07:13:42;25.30;56.00
9837;DHT22;4957;51.412;6.724;2022-07-24T07:16:08;25.50;55.50
9837;DHT22;4957;51.412;6.724;2022-07-24T07:18:34;25.70;55.10
9837;DHT22;4957;51.412;6.724;2022-07-24T07:21:02;25.90;54.70
9837;DHT22;4957;51.412;6.724;2022-07-24T07:23:28;26.10;54.40
9837;DHT22;4957;51.412;6.724;2022-07-24T07:25:53;26.30;54.00
9837;DHT22;4957;51.412;6.724;2022-07-24T07:28:20;26.50;53.80
9837;DHT22;4957;51.412;6.724;2022-07-24T07:30:45;26.70;53.50
9837;DHT22;4957;51.412;6.724;2022-07-24T07:33:11;26.90;53.10
9837;DHT22;4957;51.412;6.724;2022-07-24T07:35:37;27.10;52.70
9837;DHT22;4957;51.412;6.724;2022-07-24T07:38:03;27.30;52.40
9837;DHT22;4957;51.412;6.724;2022-07-24T07:40:28;27.50;52.00
9837;DHT22;4957;51.412;6.724;2022-07-24T07:42:54;27.70;51.70
9837;DHT22;4957;51.412;6.724;2022-07-24T07:45:20;27.80;51.40
9837;DHT22;4957;51.412;6.724;2022-07-24T07:47:45;28.10;51.10
9837;DHT22;4957;51.412;6.724;2022-07-24T07:50:11;28.30;50.80
9837;DHT22;4957;51.412;6.724;2022-07-24T07:52:37;28.40;50.30
9837;DHT22;4957;51.412;6.724;2022-07-24T07:55:04;28.60;50.10
9837;DHT22;4957;51.412;6.724;2022-07-24T07:57:30;28.80;49.60
9837;DHT22;4957;51.412;6.724;2022-07-24T07:59:56;29.00;49.30
9837;DHT22;4957;51.412;6.724;2022-07-24T08:02:21;29.20;48.90
9837;DHT22;4957;51.412;6.724;2022-07-24T08:04:47;29.40;48.50
9837;DHT22;4957;51.412;6.724;2022-07-24T08:07:13;29.60;48.10
9837;DHT22;4957;51.412;6.724;2022-07-24T08:09:39;29.80;47.80
9837;DHT22;4957;51.412;6.724;2022-07-24T08:12:05;30.00;47.30
9837;DHT22;4957;51.412;6.724;2022-07-24T08:14:31;30.20;46.80
9837;DHT22;4957;51.412;6.724;2022-07-24T08:16:56;30.40;46.40
9837;DHT22;4957;51.412;6.724;2022-07-24T08:19:22;30.50;46.10
9837;DHT22;4957;51.412;6.724;2022-07-24T08:21:48;30.70;45.80
9837;DHT22;4957;51.412;6.724;2022-07-24T08:24:14;30.90;45.50
9837;DHT22;4957;51.412;6.724;2022-07-24T08:26:47;31.10;45.20
9837;DHT22;4957;51.412;6.724;2022-07-24T08:29:13;31.30;44.90
9837;DHT22;4957;51.412;6.724;2022-07-24T08:31:38;31.50;44.70
9837;DHT22;4957;51.412;6.724;2022-07-24T08:34:04;31.70;44.30
9837;DHT22;4957;51.412;6.724;2022-07-24T08:36:30;31.80;43.90
9837;DHT22;4957;51.412;6.724;2022-07-24T08:38:56;32.00;43.60
9837;DHT22;4957;51.412;6.724;2022-07-24T08:41:22;32.20;43.30
9837;DHT22;4957;51.412;6.724;2022-07-24T08:43:48;32.40;42.90
9837;DHT22;4957;51.412;6.724;2022-07-24T08:46:15;32.60;42.60
9837;DHT22;4957;51.412;6.724;2022-07-24T08:48:45;32.80;42.40
9837;DHT22;4957;51.412;6.724;2022-07-24T08:51:15;33.00;41.90
9837;DHT22;4957;51.412;6.724;2022-07-24T08:53:42;33.20;41.60
9837;DHT22;4957;51.412;6.724;2022-07-24T08:56:09;33.40;42.00
9837;DHT22;4957;51.412;6.724;2022-07-24T08:58:39;33.60;41.10
9837;DHT22;4957;51.412;6.724;2022-07-24T09:01:06;33.80;40.60
9837;DHT22;4957;51.412;6.724;2022-07-24T09:03:42;34.00;40.50
9837;DHT22;4957;51.412;6.724;2022-07-24T09:06:10;34.20;40.20
9837;DHT22;4957;51.412;6.724;2022-07-24T09:08:41;34.40;40.00
9837;DHT22;4957;51.412;6.724;2022-07-24T09:11:08;34.60;39.50
9837;DHT22;4957;51.412;6.724;2022-07-24T09:13:36;34.70;39.20
9837;DHT22;4957;51.412;6.724;2022-07-24T09:16:23;35.00;38.80
9837;DHT22;4957;51.412;6.724;2022-07-24T09:19:06;35.20;38.60
9837;DHT22;4957;51.412;6.724;2022-07-24T09:21:37;35.40;38.00
9837;DHT22;4957;51.412;6.724;2022-07-24T09:24:17;35.60;38.00
9837;DHT22;4957;51.412;6.724;2022-07-24T09:26:47;35.80;37.60
9837;DHT22;4957;51.412;6.724;2022-07-24T09:29:14;36.00;37.50
9837;DHT22;4957;51.412;6.724;2022-07-24T09:31:58;36.20;37.00
9837;DHT22;4957;51.412;6.724;2022-07-24T09:34:25;36.40;37.00
9837;DHT22;4957;51.412;6.724;2022-07-24T09:36:57;36.60;36.40
9837;DHT22;4957;51.412;6.724;2022-07-24T09:39:27;36.80;35.80
9837;DHT22;4957;51.412;6.724;2022-07-24T09:41:55;37.00;35.40
9837;DHT22;4957;51.412;6.724;2022-07-24T09:44:22;37.20;35.20
9837;DHT22;4957;51.412;6.724;2022-07-24T09:47:11;37.30;35.10
9837;DHT22;4957;51.412;6.724;2022-07-24T09:49:38;37.60;34.40
9837;DHT22;4957;51.412;6.724;2022-07-24T09:52:11;37.70;34.50
9837;DHT22;4957;51.412;6.724;2022-07-24T09:54:45;37.90;34.00
9837;DHT22;4957;51.412;6.724;2022-07-24T09:59:56;38.30;33.50
9837;DHT22;4957;51.412;6.724;2022-07-24T10:02:30;38.50;33.20
9837;DHT22;4957;51.412;6.724;2022-07-24T10:04:58;38.60;33.00
9837;DHT22;4957;51.412;6.724;2022-07-24T10:07:25;38.80;32.70
9837;DHT22;4957;51.412;6.724;2022-07-24T10:09:52;39.00;32.50
9837;DHT22;4957;51.412;6.724;2022-07-24T10:12:23;39.10;32.10
9837;DHT22;4957;51.412;6.724;2022-07-24T10:14:52;39.30;31.70
9837;DHT22;4957;51.412;6.724;2022-07-24T10:17:18;39.50;31.50
9837;DHT22;4957;51.412;6.724;2022-07-24T10:19:46;39.70;31.30
9837;DHT22;4957;51.412;6.724;2022-07-24T10:22:15;39.80;31.20
9837;DHT22;4957;51.412;6.724;2022-07-24T10:24:53;40.00;30.70
9837;DHT22;4957;51.412;6.724;2022-07-24T10:27:25;40.20;30.30
9837;DHT22;4957;51.412;6.724;2022-07-24T10:29:56;40.40;30.10
9837;DHT22;4957;51.412;6.724;2022-07-24T10:32:24;40.50;30.20
9837;DHT22;4957;51.412;6.724;2022-07-24T10:35:11;40.70;30.00
9837;DHT22;4957;51.412;6.724;2022-07-24T10:37:43;40.90;30.00
9837;DHT22;4957;51.412;6.724;2022-07-24T10:40:18;40.90;30.00
9837;DHT22;4957;51.412;6.724;2022-07-24T10:45:39;41.20;28.80
9837;DHT22;4957;51.412;6.724;2022-07-24T10:48:29;41.20;29.00
9837;DHT22;4957;51.412;6.724;2022-07-24T10:51:01;41.20;28.40
9837;DHT22;4957;51.412;6.724;2022-07-24T10:53:53;41.10;28.70
9837;DHT22;4957;51.412;6.724;2022-07-24T10:56:28;41.10;28.40
9837;DHT22;4957;51.412;6.724;2022-07-24T10:59:08;41.20;28.70
9837;DHT22;4957;51.412;6.724;2022-07-24T11:01:43;41.20;29.10
9837;DHT22;4957;51.412;6.724;2022-07-24T11:07:07;41.30;29.00
9837;DHT22;4957;51.412;6.724;2022-07-24T11:09:53;41.40;29.20
9837;DHT22;4957;51.412;6.724;2022-07-24T11:12:31;41.50;28.80
9837;DHT22;4957;51.412;6.724;2022-07-24T11:14:59;41.60;28.50
9837;DHT22;4957;51.412;6.724;2022-07-24T11:17:45;41.60;28.80
9837;DHT22;4957;51.412;6.724;2022-07-24T11:20:17;41.60;29.00
9837;DHT22;4957;51.412;6.724;2022-07-24T11:22:49;41.70;28.50
9837;DHT22;4957;51.412;6.724;2022-07-24T11:25:42;41.80;28.40
9837;DHT22;4957;51.412;6.724;2022-07-24T11:30:33;42.00;28.50
9837;DHT22;4957;51.412;6.724;2022-07-24T11:33:05;42.10;28.30
9837;DHT22;4957;51.412;6.724;2022-07-24T11:35:34;42.20;27.90
9837;DHT22;4957;51.412;6.724;2022-07-24T11:38:02;42.30;27.40
9837;DHT22;4957;51.412;6.724;2022-07-24T11:40:28;42.40;27.40
9837;DHT22;4957;51.412;6.724;2022-07-24T11:42:58;42.50;27.30
9837;DHT22;4957;51.412;6.724;2022-07-24T11:45:25;42.60;27.20
9837;DHT22;4957;51.412;6.724;2022-07-24T11:47:51;42.70;27.00
9837;DHT22;4957;51.412;6.724;2022-07-24T11:50:21;42.80;26.90
9837;DHT22;4957;51.412;6.724;2022-07-24T11:52:47;42.90;26.80
9837;DHT22;4957;51.412;6.724;2022-07-24T11:55:15;43.00;26.70
9837;DHT22;4957;51.412;6.724;2022-07-24T11:57:50;43.20;26.50
9837;DHT22;4957;51.412;6.724;2022-07-24T12:00:19;43.20;26.40
9837;DHT22;4957;51.412;6.724;2022-07-24T12:02:48;43.30;26.20
9837;DHT22;4957;51.412;6.724;2022-07-24T12:05:24;43.50;26.10
9837;DHT22;4957;51.412;6.724;2022-07-24T12:07:50;43.60;26.10
9837;DHT22;4957;51.412;6.724;2022-07-24T12:10:19;43.70;25.90
9837;DHT22;4957;51.412;6.724;2022-07-24T12:12:47;43.90;25.70
9837;DHT22;4957;51.412;6.724;2022-07-24T12:15:14;43.90;25.80
9837;DHT22;4957;51.412;6.724;2022-07-24T12:17:55;44.00;25.50
9837;DHT22;4957;51.412;6.724;2022-07-24T12:20:22;44.10;24.90
9837;DHT22;4957;51.412;6.724;2022-07-24T12:22:49;44.20;25.10
9837;DHT22;4957;51.412;6.724;2022-07-24T12:25:15;44.30;25.10
9837;DHT22;4957;51.412;6.724;2022-07-24T12:27:42;44.40;24.90
9837;DHT22;4957;51.412;6.724;2022-07-24T12:30:29;44.50;24.70
9837;DHT22;4957;51.412;6.724;2022-07-24T12:33:18;44.60;24.30
9837;DHT22;4957;51.412;6.724;2022-07-24T12:38:36;44.80;24.20
9837;DHT22;4957;51.412;6.724;2022-07-24T12:43:29;44.90;24.20
9837;DHT22;4957;51.412;6.724;2022-07-24T12:46:08;45.00;24.30
9837;DHT22;4957;51.412;6.724;2022-07-24T12:48:34;45.10;24.10
9837;DHT22;4957;51.412;6.724;2022-07-24T12:51:19;45.20;24.30
9837;DHT22;4957;51.412;6.724;2022-07-24T12:53:45;45.30;24.00
9837;DHT22;4957;51.412;6.724;2022-07-24T12:56:15;45.30;23.90
9837;DHT22;4957;51.412;6.724;2022-07-24T13:01:13;45.30;23.40
9837;DHT22;4957;51.412;6.724;2022-07-24T13:03:38;45.30;23.50
9837;DHT22;4957;51.412;6.724;2022-07-24T13:06:04;45.40;23.60
9837;DHT22;4957;51.412;6.724;2022-07-24T13:08:30;45.40;23.60
9837;DHT22;4957;51.412;6.724;2022-07-24T13:10:55;45.30;23.50
9837;DHT22;4957;51.412;6.724;2022-07-24T13:13:22;45.30;23.50
9837;DHT22;4957;51.412;6.724;2022-07-24T13:15:48;45.30;23.50
9837;DHT22;4957;51.412;6.724;2022-07-24T13:18:13;45.30;23.30
9837;DHT22;4957;51.412;6.724;2022-07-24T13:20:39;45.20;23.30
9837;DHT22;4957;51.412;6.724;2022-07-24T13:23:04;45.10;23.40
9837;DHT22;4957;51.412;6.724;2022-07-24T13:25:30;45.10;23.40
9837;DHT22;4957;51.412;6.724;2022-07-24T13:27:56;45.10;23.30
9837;DHT22;4957;51.412;6.724;2022-07-24T13:30:22;44.90;23.60
9837;DHT22;4957;51.412;6.724;2022-07-24T13:32:47;44.90;23.50
9837;DHT22;4957;51.412;6.724;2022-07-24T13:35:13;44.80;23.40
9837;DHT22;4957;51.412;6.724;2022-07-24T13:37:39;44.80;23.50
9837;DHT22;4957;51.412;6.724;2022-07-24T13:40:05;44.70;23.40
9837;DHT22;4957;51.412;6.724;2022-07-24T13:42:33;44.60;23.40
9837;DHT22;4957;51.412;6.724;2022-07-24T13:44:59;44.50;23.40
9837;DHT22;4957;51.412;6.724;2022-07-24T13:47:25;44.40;23.50
9837;DHT22;4957;51.412;6.724;2022-07-24T13:49:50;44.20;23.50
9837;DHT22;4957;51.412;6.724;2022-07-24T13:52:16;44.20;23.70
9837;DHT22;4957;51.412;6.724;2022-07-24T13:54:42;44.10;23.80
9837;DHT22;4957;51.412;6.724;2022-07-24T13:57:07;43.90;23.80
9837;DHT22;4957;51.412;6.724;2022-07-24T13:59:33;43.80;23.70
9837;DHT22;4957;51.412;6.724;2022-07-24T14:01:59;43.70;23.90
9837;DHT22;4957;51.412;6.724;2022-07-24T14:04:25;43.50;24.20
9837;DHT22;4957;51.412;6.724;2022-07-24T14:06:51;43.50;24.40
9837;DHT22;4957;51.412;6.724;2022-07-24T14:09:17;43.40;24.30
9837;DHT22;4957;51.412;6.724;2022-07-24T14:11:43;43.20;24.20
9837;DHT22;4957;51.412;6.724;2022-07-24T14:14:08;43.00;24.40
9837;DHT22;4957;51.412;6.724;2022-07-24T14:16:34;42.90;24.40
9837;DHT22;4957;51.412;6.724;2022-07-24T14:19:02;42.80;24.40
9837;DHT22;4957;51.412;6.724;2022-07-24T14:21:28;42.70;24.30
9837;DHT22;4957;51.412;6.724;2022-07-24T14:23:55;42.50;24.30
9837;DHT22;4957;51.412;6.724;2022-07-24T14:26:21;42.50;24.50
9837;DHT22;4957;51.412;6.724;2022-07-24T14:28:47;42.30;24.50
9837;DHT22;4957;51.412;6.724;2022-07-24T14:31:12;42.10;24.60
9837;DHT22;4957;51.412;6.724;2022-07-24T14:33:38;42.10;24.60
9837;DHT22;4957;51.412;6.724;2022-07-24T14:36:05;42.00;24.70
9837;DHT22;4957;51.412;6.724;2022-07-24T14:38:30;41.90;24.70
9837;DHT22;4957;51.412;6.724;2022-07-24T14:40:56;41.80;24.90
9837;DHT22;4957;51.412;6.724;2022-07-24T14:43:22;41.70;24.90
9837;DHT22;4957;51.412;6.724;2022-07-24T14:45:47;41.50;25.00
9837;DHT22;4957;51.412;6.724;2022-07-24T14:48:13;41.40;25.10
9837;DHT22;4957;51.412;6.724;2022-07-24T14:50:39;41.30;25.20
9837;DHT22;4957;51.412;6.724;2022-07-24T14:53:04;41.20;25.30
9837;DHT22;4957;51.412;6.724;2022-07-24T14:55:30;41.10;25.20
9837;DHT22;4957;51.412;6.724;2022-07-24T14:57:55;41.10;25.40
9837;DHT22;4957;51.412;6.724;2022-07-24T15:00:22;41.00;25.40
9837;DHT22;4957;51.412;6.724;2022-07-24T15:02:47;40.90;25.40
9837;DHT22;4957;51.412;6.724;2022-07-24T15:05:13;40.80;26.10
9837;DHT22;4957;51.412;6.724;2022-07-24T15:07:39;40.70;25.60
9837;DHT22;4957;51.412;6.724;2022-07-24T15:10:05;40.60;25.60
9837;DHT22;4957;51.412;6.724;2022-07-24T15:12:30;40.50;25.70
9837;DHT22;4957;51.412;6.724;2022-07-24T15:14:56;40.50;25.70
9837;DHT22;4957;51.412;6.724;2022-07-24T15:17:22;40.40;25.80
9837;DHT22;4957;51.412;6.724;2022-07-24T15:19:47;40.30;25.90
9837;DHT22;4957;51.412;6.724;2022-07-24T15:22:13;40.30;25.90
9837;DHT22;4957;51.412;6.724;2022-07-24T15:24:39;40.30;25.90
9837;DHT22;4957;51.412;6.724;2022-07-24T15:27:04;40.30;25.90
9837;DHT22;4957;51.412;6.724;2022-07-24T15:29:30;40.20;25.90
9837;DHT22;4957;51.412;6.724;2022-07-24T15:31:57;40.20;25.90
9837;DHT22;4957;51.412;6.724;2022-07-24T15:34:22;40.20;25.80
9837;DHT22;4957;51.412;6.724;2022-07-24T15:36:48;40.20;25.90
9837;DHT22;4957;51.412;6.724;2022-07-24T15:39:14;40.10;26.00
9837;DHT22;4957;51.412;6.724;2022-07-24T15:41:39;40.10;26.10
9837;DHT22;4957;51.412;6.724;2022-07-24T15:44:05;40.10;26.50
9837;DHT22;4957;51.412;6.724;2022-07-24T15:46:31;40.10;26.30
9837;DHT22;4957;51.412;6.724;2022-07-24T15:48:57;40.00;26.20
9837;DHT22;4957;51.412;6.724;2022-07-24T15:51:23;39.90;26.30
9837;DHT22;4957;51.412;6.724;2022-07-24T15:53:49;39.80;26.10
9837;DHT22;4957;51.412;6.724;2022-07-24T15:56:14;39.70;26.20
9837;DHT22;4957;51.412;6.724;2022-07-24T15:58:40;39.80;26.20
9837;DHT22;4957;51.412;6.724;2022-07-24T16:01:06;39.80;26.70
9837;DHT22;4957;51.412;6.724;2022-07-24T16:03:32;39.70;26.40
9837;DHT22;4957;51.412;6.724;2022-07-24T16:05:57;39.70;26.30
9837;DHT22;4957;51.412;6.724;2022-07-24T16:08:23;39.70;26.40
9837;DHT22;4957;51.412;6.724;2022-07-24T16:10:49;39.70;26.40
9837;DHT22;4957;51.412;6.724;2022-07-24T16:13:14;39.60;26.60
9837;DHT22;4957;51.412;6.724;2022-07-24T16:15:40;39.60;26.70
9837;DHT22;4957;51.412;6.724;2022-07-24T16:18:06;39.60;26.60
9837;DHT22;4957;51.412;6.724;2022-07-24T16:20:32;39.60;26.70